Mount Washington, Kentucky
Current Conditions -  °F | °C
As of 7:56 PM on Monday 24 Nov 2014 (Local Time) from KSDF Reporting Station
Broken Clouds Broken Clouds  
Wind Chill: 43°   Ceiling: 6000
Heat Index: 48°   Visibility: 10mi
Dew Point: 33°   Wind: 12mph
Humidity: 56%   Direction: 240°WSW
Pressure: 29.9"   Gusts: NA
Location:  38.04°N, 85.54°W
Report Text: KSDF 250056Z 24010KT 10SM BKN060 09/01 A2990 RMK AO2 SLP125 T00890006
Loading
Personal Weather Stations






























Interactive Weather Map New forecast layout! Learn more

10-Day Weather Forecast

Advertisements
Track Severe Weather on mobile